sensor_id;sensor_type;location;lat;lon;timestamp;P1;durP1;ratioP1;P2;durP2;ratioP2
41572;SDS011;27286;47.870;19.006;2022-07-23T12:25:22;3.85;;;2.20;;
41572;SDS011;27286;47.870;19.006;2022-07-23T12:33:11;4.00;;;2.40;;
41572;SDS011;27286;47.870;19.006;2022-07-23T12:38:08;4.63;;;2.72;;
41572;SDS011;27286;47.870;19.006;2022-07-23T12:40:49;3.35;;;2.15;;
41572;SDS011;27286;47.870;19.006;2022-07-23T12:43:25;3.50;;;2.45;;
41572;SDS011;27286;47.870;19.006;2022-07-23T12:48:33;3.55;;;2.78;;
41572;SDS011;27286;47.870;19.006;2022-07-23T12:53:37;2.53;;;2.25;;
41572;SDS011;27286;47.870;19.006;2022-07-23T12:56:09;3.08;;;2.25;;
41572;SDS011;27286;47.870;19.006;2022-07-23T12:58:44;3.35;;;2.53;;
41572;SDS011;27286;47.870;19.006;2022-07-23T13:01:22;4.70;;;2.13;;
41572;SDS011;27286;47.870;19.006;2022-07-23T13:04:00;3.15;;;2.17;;
41572;SDS011;27286;47.870;19.006;2022-07-23T13:06:33;3.00;;;2.42;;
41572;SDS011;27286;47.870;19.006;2022-07-23T13:09:04;4.93;;;3.13;;
41572;SDS011;27286;47.870;19.006;2022-07-23T13:11:31;3.80;;;2.22;;
41572;SDS011;27286;47.870;19.006;2022-07-23T13:13:57;2.78;;;2.40;;
41572;SDS011;27286;47.870;19.006;2022-07-23T13:16:25;2.70;;;2.33;;
41572;SDS011;27286;47.870;19.006;2022-07-23T13:18:53;4.35;;;2.38;;
41572;SDS011;27286;47.870;19.006;2022-07-23T13:21:18;6.47;;;2.10;;
41572;SDS011;27286;47.870;19.006;2022-07-23T13:23:44;3.28;;;2.47;;
41572;SDS011;27286;47.870;19.006;2022-07-23T13:26:09;2.42;;;2.13;;
41572;SDS011;27286;47.870;19.006;2022-07-23T13:28:35;3.45;;;2.30;;
41572;SDS011;27286;47.870;19.006;2022-07-23T13:31:00;2.20;;;1.90;;
41572;SDS011;27286;47.870;19.006;2022-07-23T13:33:26;2.85;;;2.55;;
41572;SDS011;27286;47.870;19.006;2022-07-23T13:35:52;2.92;;;2.15;;
41572;SDS011;27286;47.870;19.006;2022-07-23T13:38:18;4.93;;;2.63;;
41572;SDS011;27286;47.870;19.006;2022-07-23T13:40:46;4.45;;;2.63;;
41572;SDS011;27286;47.870;19.006;2022-07-23T13:43:14;3.10;;;2.15;;
41572;SDS011;27286;47.870;19.006;2022-07-23T13:45:41;3.00;;;2.40;;
41572;SDS011;27286;47.870;19.006;2022-07-23T13:48:07;5.25;;;2.03;;
41572;SDS011;27286;47.870;19.006;2022-07-23T13:50:34;5.72;;;3.55;;
41572;SDS011;27286;47.870;19.006;2022-07-23T13:53:03;5.55;;;1.98;;
41572;SDS011;27286;47.870;19.006;2022-07-23T13:55:30;3.17;;;2.30;;
41572;SDS011;27286;47.870;19.006;2022-07-23T13:57:56;2.90;;;2.60;;
41572;SDS011;27286;47.870;19.006;2022-07-23T14:00:21;3.58;;;3.00;;
41572;SDS011;27286;47.870;19.006;2022-07-23T14:02:47;4.82;;;2.30;;
41572;SDS011;27286;47.870;19.006;2022-07-23T14:05:13;4.38;;;2.53;;
41572;SDS011;27286;47.870;19.006;2022-07-23T14:07:39;4.07;;;2.90;;
41572;SDS011;27286;47.870;19.006;2022-07-23T14:10:06;4.72;;;2.90;;
41572;SDS011;27286;47.870;19.006;2022-07-23T14:12:32;3.00;;;2.70;;
41572;SDS011;27286;47.870;19.006;2022-07-23T14:14:58;2.58;;;1.90;;
41572;SDS011;27286;47.870;19.006;2022-07-23T14:17:23;3.83;;;2.55;;
41572;SDS011;27286;47.870;19.006;2022-07-23T14:19:49;4.68;;;1.95;;
41572;SDS011;27286;47.870;19.006;2022-07-23T14:22:17;2.33;;;2.05;;
41572;SDS011;27286;47.870;19.006;2022-07-23T14:24:42;4.25;;;2.70;;
41572;SDS011;27286;47.870;19.006;2022-07-23T14:27:08;3.90;;;2.80;;
41572;SDS011;27286;47.870;19.006;2022-07-23T14:29:34;2.80;;;2.42;;
41572;SDS011;27286;47.870;19.006;2022-07-23T14:32:00;2.95;;;2.65;;
41572;SDS011;27286;47.870;19.006;2022-07-23T14:34:26;4.45;;;2.50;;
41572;SDS011;27286;47.870;19.006;2022-07-23T14:36:52;5.32;;;2.45;;
41572;SDS011;27286;47.870;19.006;2022-07-23T14:39:17;2.83;;;2.30;;
41572;SDS011;27286;47.870;19.006;2022-07-23T14:41:43;3.53;;;2.53;;
41572;SDS011;27286;47.870;19.006;2022-07-23T14:44:09;3.95;;;2.83;;
41572;SDS011;27286;47.870;19.006;2022-07-23T14:46:34;3.45;;;2.42;;
41572;SDS011;27286;47.870;19.006;2022-07-23T14:49:00;3.33;;;2.70;;
41572;SDS011;27286;47.870;19.006;2022-07-23T14:51:25;2.63;;;2.30;;
41572;SDS011;27286;47.870;19.006;2022-07-23T14:53:51;4.20;;;2.80;;
41572;SDS011;27286;47.870;19.006;2022-07-23T14:56:17;4.97;;;2.60;;
41572;SDS011;27286;47.870;19.006;2022-07-23T14:58:42;4.57;;;2.92;;
41572;SDS011;27286;47.870;19.006;2022-07-23T15:01:08;3.28;;;2.47;;
41572;SDS011;27286;47.870;19.006;2022-07-23T15:03:33;3.63;;;2.83;;
41572;SDS011;27286;47.870;19.006;2022-07-23T15:05:59;4.63;;;3.10;;
41572;SDS011;27286;47.870;19.006;2022-07-23T15:08:24;5.22;;;2.50;;
41572;SDS011;27286;47.870;19.006;2022-07-23T15:10:50;6.68;;;3.38;;
41572;SDS011;27286;47.870;19.006;2022-07-23T15:13:15;2.47;;;2.28;;
41572;SDS011;27286;47.870;19.006;2022-07-23T15:15:41;4.13;;;3.25;;
41572;SDS011;27286;47.870;19.006;2022-07-23T15:18:07;4.03;;;3.28;;
41572;SDS011;27286;47.870;19.006;2022-07-23T15:20:32;5.60;;;4.30;;
41572;SDS011;27286;47.870;19.006;2022-07-23T15:22:58;4.55;;;3.58;;
41572;SDS011;27286;47.870;19.006;2022-07-23T15:25:23;5.53;;;4.95;;
41572;SDS011;27286;47.870;19.006;2022-07-23T15:27:49;7.35;;;5.80;;
